Time;durP1;ratioP1;P1;durP2;ratioP2;P2;SDS_P1;SDS_P2;PMS_P1;PMS_P2;Temp;Humidity;BMP_temperature;BMP_pressure;BME280_temperature;BME280_humidity;BME280_pressure;Samples;Min_cycle;Max_cycle;Signal;HPM_P1;HPM_P2
2021/07/24 00:01:29;;;;;;;15.97;10.57;;;;;;;16.73;89.62;100654.25;4960505;28;20268;-70
2021/07/24 00:03:55;;;;;;;17.17;10.90;;;;;;;16.78;86.43;100658.34;4960138;28;20206;-70
2021/07/24 00:06:22;;;;;;;17.10;11.40;;;;;;;16.85;86.17;100658.91;4961324;28;20650;-70
2021/07/24 00:08:48;;;;;;;16.77;11.37;;;;;;;16.88;86.31;100657.88;4960681;28;20209;-71
2021/07/24 00:11:15;;;;;;;18.07;11.37;;;;;;;16.89;88.43;100660.44;4961412;28;20288;-70
2021/07/24 00:13:41;;;;;;;16.67;11.33;;;;;;;16.89;89.91;100659.59;4959621;28;20220;-70
2021/07/24 00:16:08;;;;;;;15.17;10.67;;;;;;;16.90;90.49;100648.09;4966464;28;20307;-70
2021/07/24 00:18:36;;;;;;;14.63;9.77;;;;;;;16.88;90.44;100647.34;4961960;28;20566;-70
2021/07/24 00:21:03;;;;;;;18.53;11.70;;;;;;;16.85;90.82;100653.63;4965306;28;20226;-71
2021/07/24 00:23:29;;;;;;;16.67;10.83;;;;;;;16.85;91.59;100656.28;4962482;28;20803;-70
2021/07/24 00:25:56;;;;;;;13.90;10.47;;;;;;;16.83;91.81;100645.81;4967319;28;20214;-71
2021/07/24 00:28:22;;;;;;;14.43;9.90;;;;;;;16.86;93.17;100651.84;4961540;28;20691;-71
2021/07/24 00:30:48;;;;;;;16.47;11.43;;;;;;;16.83;92.44;100642.28;4966184;28;20261;-70
2021/07/24 00:33:24;;;;;;;14.40;9.93;;;;;;;16.84;92.85;100644.88;4974816;28;20210;-70
2021/07/24 00:35:52;;;;;;;13.97;9.73;;;;;;;16.82;92.53;100643.22;4967384;28;20213;-70
2021/07/24 00:38:18;;;;;;;14.43;9.13;;;;;;;16.81;93.59;100638.88;4961544;28;20210;-70
2021/07/24 00:40:52;;;;;;;16.23;11.00;;;;;;;16.77;93.30;100639.97;4964456;28;20784;-70
2021/07/24 00:43:20;;;;;;;13.30;9.00;;;;;;;16.75;93.74;100628.69;4961787;28;20230;-71
2021/07/24 00:45:49;;;;;;;14.97;10.63;;;;;;;16.75;94.62;100633.94;4965332;28;20226;-71
2021/07/24 00:48:20;;;;;;;16.27;10.23;;;;;;;16.69;93.99;100628.97;4965389;28;20214;-70
2021/07/24 00:53:36;;;;;;;16.53;11.00;;;;;;;16.64;90.91;100624.81;4967276;28;20242;-75
2021/07/24 00:56:04;;;;;;;15.90;11.40;;;;;;;16.72;87.93;100626.19;4972436;28;20226;-76
2021/07/24 00:58:32;;;;;;;17.03;11.47;;;;;;;16.82;87.45;100619.53;4964512;28;20206;-76
2021/07/24 01:00:59;;;;;;;17.23;11.63;;;;;;;16.85;86.11;100622.03;4967813;28;20285;-75
2021/07/24 01:03:26;;;;;;;17.63;11.93;;;;;;;16.91;85.47;100623.50;4969420;28;20237;-75
2021/07/24 01:05:55;;;;;;;14.70;10.50;;;;;;;16.94;85.85;100620.69;4961139;28;20218;-75
2021/07/24 01:08:22;;;;;;;14.87;10.63;;;;;;;16.96;85.30;100617.03;4970319;28;20248;-75
2021/07/24 01:10:52;;;;;;;17.67;11.23;;;;;;;16.98;85.25;100609.06;4980677;28;20206;-75
2021/07/24 01:13:20;;;;;;;16.83;11.00;;;;;;;16.96;85.68;100618.84;4969716;28;20242;-73
2021/07/24 01:15:49;;;;;;;16.80;11.10;;;;;;;16.92;86.12;100614.66;4983517;28;20280;-73
2021/07/24 01:18:19;;;;;;;17.47;11.03;;;;;;;16.90;85.55;100611.25;4970302;28;20208;-73
2021/07/24 01:20:47;;;;;;;18.10;11.77;;;;;;;16.90;84.79;100614.72;4981669;28;20214;-73
2021/07/24 01:23:17;;;;;;;15.47;10.83;;;;;;;16.93;84.02;100611.09;4981455;28;20701;-73
2021/07/24 01:25:46;;;;;;;16.80;11.07;;;;;;;16.93;84.67;100603.19;4976227;28;20258;-73
2021/07/24 01:28:14;;;;;;;14.67;11.17;;;;;;;16.93;84.47;100611.94;4965711;28;20201;-73
2021/07/24 01:30:44;;;;;;;18.60;11.13;;;;;;;16.95;84.20;100606.59;4968491;28;20674;-73
2021/07/24 01:33:12;;;;;;;19.10;11.67;;;;;;;16.98;83.87;100611.69;4969156;28;20210;-73
2021/07/24 01:35:45;;;;;;;18.93;10.83;;;;;;;16.96;85.17;100606.50;4960984;28;20284;-73
2021/07/24 01:38:12;;;;;;;14.77;10.93;;;;;;;16.93;84.73;100611.94;4966639;28;20213;-73
2021/07/24 01:40:41;;;;;;;16.77;11.30;;;;;;;16.91;84.60;100605.91;4982092;28;20572;-73
2021/07/24 01:43:08;;;;;;;16.67;11.43;;;;;;;16.90;85.23;100600.72;4961816;28;20225;-73
2021/07/24 01:45:35;;;;;;;16.30;10.77;;;;;;;16.87;87.46;100593.84;4968120;28;20618;-73
2021/07/24 01:48:04;;;;;;;18.17;10.97;;;;;;;16.81;87.00;100604.66;4964758;28;20214;-73
2021/07/24 01:53:15;;;;;;;15.10;10.90;;;;;;;16.78;88.41;100596.91;4970280;28;20213;-74
2021/07/24 01:55:50;;;;;;;17.73;11.00;;;;;;;16.78;89.29;100597.78;4970989;28;20245;-74
2021/07/24 01:58:20;;;;;;;15.37;10.87;;;;;;;16.77;90.97;100590.78;4968841;28;20197;-74
2021/07/24 02:00:55;;;;;;;15.47;10.70;;;;;;;16.74;88.81;100590.09;4968741;28;20568;-74
2021/07/24 02:03:31;;;;;;;14.13;11.03;;;;;;;16.77;90.01;100598.69;4971262;28;20214;-74
2021/07/24 02:06:25;;;;;;;18.03;11.87;;;;;;;16.77;90.16;100590.78;4970181;28;20737;-74
2021/07/24 02:09:16;;;;;;;17.70;11.13;;;;;;;16.79;91.48;100588.94;4981716;28;20504;-74
2021/07/24 02:11:48;;;;;;;16.20;11.27;;;;;;;16.76;91.21;100590.88;4978406;28;20347;-74
2021/07/24 02:14:20;;;;;;;16.27;11.00;;;;;;;16.76;92.45;100583.84;4981266;28;20222;-73
2021/07/24 02:16:53;;;;;;;17.80;11.30;;;;;;;16.74;92.04;100579.56;4980851;28;20608;-73
2021/07/24 02:19:28;;;;;;;17.43;11.00;;;;;;;16.74;93.09;100584.84;4967338;28;20230;-73
2021/07/24 02:21:54;;;;;;;18.17;11.97;;;;;;;16.72;92.36;100589.34;4966897;28;20288;-73
2021/07/24 02:24:22;;;;;;;16.37;11.60;;;;;;;16.71;91.54;100585.88;4968831;28;20216;-73
2021/07/24 02:26:50;;;;;;;17.23;11.50;;;;;;;16.72;91.83;100587.53;4978476;28;20669;-73
2021/07/24 02:29:17;;;;;;;17.73;12.20;;;;;;;16.74;92.16;100585.69;4968946;28;20605;-73
2021/07/24 02:31:45;;;;;;;17.93;12.47;;;;;;;16.75;91.72;100590.03;4972849;28;20230;-73
2021/07/24 02:34:17;;;;;;;18.30;12.30;;;;;;;16.77;91.67;100585.53;4975595;28;20202;-73
2021/07/24 02:36:43;;;;;;;22.53;14.10;;;;;;;16.77;90.12;100592.59;4957459;28;20713;-74
2021/07/24 02:39:10;;;;;;;20.60;13.70;;;;;;;16.79;89.59;100594.19;4977451;28;20210;-74
2021/07/24 02:41:36;;;;;;;19.27;14.63;;;;;;;16.81;89.20;100588.84;4968598;28;20249;-73
2021/07/24 02:44:05;;;;;;;18.63;13.67;;;;;;;16.83;89.39;100593.16;4964437;28;20199;-73
2021/07/24 02:46:31;;;;;;;20.67;13.67;;;;;;;16.86;89.20;100588.66;4982700;28;20228;-73
2021/07/24 02:48:58;;;;;;;19.93;14.57;;;;;;;16.89;88.74;100585.88;4972387;28;20650;-73
2021/07/24 02:51:28;;;;;;;20.27;13.77;;;;;;;16.92;88.15;100583.91;4982776;28;20205;-73
2021/07/24 02:53:56;;;;;;;20.43;13.70;;;;;;;16.97;87.68;100579.25;4981565;28;20223;-73
2021/07/24 02:56:23;;;;;;;22.63;14.23;;;;;;;17.02;87.25;100573.72;4949292;29;20301;-73
2021/07/24 02:58:50;;;;;;;21.67;14.10;;;;;;;17.05;86.73;100568.28;4982634;28;20225;-73
2021/07/24 03:01:18;;;;;;;20.90;13.90;;;;;;;17.07;86.60;100565.59;4962987;28;20216;-73
2021/07/24 03:03:44;;;;;;;17.87;13.10;;;;;;;17.10;86.20;100566.25;4970087;28;20387;-73
2021/07/24 03:06:11;;;;;;;18.83;12.37;;;;;;;17.14;84.98;100565.16;4967782;28;20225;-73
2021/07/24 03:08:37;;;;;;;19.53;12.73;;;;;;;17.16;85.34;100565.06;4967749;28;20301;-73
2021/07/24 03:11:04;;;;;;;19.73;12.63;;;;;;;17.19;84.41;100559.66;4968293;28;20213;-73
2021/07/24 03:13:31;;;;;;;17.83;11.97;;;;;;;17.22;84.11;100560.31;4964618;28;20209;-73
2021/07/24 03:15:57;;;;;;;17.27;12.33;;;;;;;17.24;84.58;100554.97;4957442;28;20489;-73
2021/07/24 03:18:25;;;;;;;18.00;11.93;;;;;;;17.22;84.26;100560.31;4968063;28;20205;-73
2021/07/24 03:20:51;;;;;;;16.33;12.80;;;;;;;17.20;84.14;100553.44;4968160;28;20436;-73
2021/07/24 03:23:18;;;;;;;18.33;12.57;;;;;;;17.15;84.49;100553.69;4969242;28;20225;-74
2021/07/24 03:25:44;;;;;;;19.33;12.00;;;;;;;17.15;84.33;100553.69;4964671;28;20248;-73
2021/07/24 03:28:11;;;;;;;16.33;11.30;;;;;;;17.10;85.80;100550.47;4966851;28;20230;-74
2021/07/24 03:30:38;;;;;;;17.77;12.47;;;;;;;17.06;85.24;100558.59;4967708;28;20202;-73
2021/07/24 03:33:05;;;;;;;14.77;11.60;;;;;;;17.03;85.78;100557.00;4966338;28;20217;-75
2021/07/24 03:35:33;;;;;;;17.10;11.57;;;;;;;16.99;85.30;100556.31;4962130;28;20226;-75
2021/07/24 03:38:03;;;;;;;18.23;11.23;;;;;;;16.97;85.63;100547.66;4962526;28;20201;-74
2021/07/24 03:40:29;;;;;;;16.93;11.93;;;;;;;16.91;85.97;100536.59;4970096;28;20220;-74
2021/07/24 03:42:55;;;;;;;17.60;12.00;;;;;;;16.89;85.75;100541.94;4969697;28;20212;-74
2021/07/24 03:45:22;;;;;;;15.57;11.43;;;;;;;16.89;86.13;100538.47;4970264;28;20407;-74
2021/07/24 03:47:48;;;;;;;16.10;11.47;;;;;;;16.88;86.62;100542.84;4967311;28;20226;-73
2021/07/24 03:50:15;;;;;;;17.70;11.67;;;;;;;16.87;85.92;100538.53;4966123;28;20688;-73
2021/07/24 03:52:42;;;;;;;14.83;11.03;;;;;;;16.92;85.29;100541.78;4967297;28;20213;-73
2021/07/24 03:55:10;;;;;;;17.13;11.47;;;;;;;16.98;85.04;100541.44;4960985;28;20232;-73
2021/07/24 03:57:37;;;;;;;18.67;12.33;;;;;;;17.06;84.68;100545.44;4967584;28;20205;-73
2021/07/24 04:00:05;;;;;;;17.00;11.13;;;;;;;17.11;83.79;100546.88;4965138;28;20214;-73
2021/07/24 04:02:32;;;;;;;15.43;11.53;;;;;;;17.14;83.89;100538.81;4967556;28;20666;-73
2021/07/24 04:04:59;;;;;;;15.43;11.53;;;;;;;17.19;83.46;100534.16;4964580;28;20210;-72
2021/07/24 04:07:26;;;;;;;13.80;10.63;;;;;;;17.25;83.24;100535.59;4966786;28;20206;-73
2021/07/24 04:09:54;;;;;;;18.20;11.00;;;;;;;17.30;82.94;100540.59;4967745;28;20202;-73
2021/07/24 04:12:21;;;;;;;16.27;11.33;;;;;;;17.33;82.47;100535.19;4964131;28;20392;-73
2021/07/24 04:14:47;;;;;;;16.73;11.47;;;;;;;17.37;82.27;100539.34;4967022;28;20572;-73
2021/07/24 04:17:14;;;;;;;14.63;11.07;;;;;;;17.43;81.94;100539.00;4967146;28;20201;-75
2021/07/24 04:19:40;;;;;;;15.77;11.03;;;;;;;17.44;81.59;100539.84;4969052;28;20221;-75
2021/07/24 04:22:07;;;;;;;17.83;11.40;;;;;;;17.47;81.01;100537.88;4966518;28;20206;-75
2021/07/24 04:24:33;;;;;;;17.40;11.13;;;;;;;17.49;81.17;100536.00;4970558;28;20209;-75
2021/07/24 04:27:01;;;;;;;17.10;12.17;;;;;;;17.53;80.86;100536.69;4965509;28;20750;-75
2021/07/24 04:29:27;;;;;;;18.57;12.30;;;;;;;17.57;80.17;100536.44;4967753;28;20682;-74
2021/07/24 04:31:55;;;;;;;19.13;11.90;;;;;;;17.63;79.67;100539.66;4968268;28;20220;-75
2021/07/24 04:34:21;;;;;;;17.73;11.27;;;;;;;17.66;80.00;100548.25;4969691;28;20229;-72
2021/07/24 04:36:48;;;;;;;18.17;11.57;;;;;;;17.71;79.70;100550.59;4969533;28;20224;-74
2021/07/24 04:39:14;;;;;;;16.80;11.40;;;;;;;17.74;79.28;100551.28;4969190;28;20202;-75
2021/07/24 04:41:42;;;;;;;19.23;12.53;;;;;;;17.78;79.61;100559.84;4967050;28;20304;-74
2021/07/24 04:44:09;;;;;;;17.17;11.43;;;;;;;17.84;78.74;100556.88;4966773;28;20202;-74
2021/07/24 04:46:36;;;;;;;17.50;12.17;;;;;;;17.91;78.71;100555.63;4971874;28;20400;-74
2021/07/24 04:49:03;;;;;;;16.80;11.50;;;;;;;17.94;78.67;100551.94;4969026;28;20671;-74
2021/07/24 04:51:30;;;;;;;16.97;11.57;;;;;;;17.99;79.16;100557.78;4964656;28;20213;-75
2021/07/24 04:53:57;;;;;;;15.90;10.87;;;;;;;18.06;78.47;100555.66;4968872;28;20214;-75
2021/07/24 04:56:24;;;;;;;16.23;11.00;;;;;;;18.16;77.98;100557.66;4966737;28;20221;-74
2021/07/24 04:58:51;;;;;;;17.40;12.03;;;;;;;18.28;77.58;100561.38;4967708;28;20209;-74
2021/07/24 05:01:20;;;;;;;15.80;11.30;;;;;;;18.40;77.01;100573.00;4965121;28;20199;-73
2021/07/24 05:03:47;;;;;;;17.70;11.73;;;;;;;18.50;76.52;100568.88;4985543;28;20202;-75
2021/07/24 05:06:14;;;;;;;17.07;11.67;;;;;;;18.56;76.49;100575.56;4974255;28;20786;-74
2021/07/24 05:08:40;;;;;;;16.37;11.77;;;;;;;18.63;76.04;100576.88;4967246;28;20654;-75
2021/07/24 05:11:06;;;;;;;17.63;11.70;;;;;;;18.69;76.00;100584.41;4972351;28;20201;-75
2021/07/24 05:13:33;;;;;;;18.70;12.83;;;;;;;18.80;75.15;100589.03;4969240;28;20214;-73
2021/07/24 05:15:59;;;;;;;16.53;11.77;;;;;;;18.88;75.73;100586.81;4965777;28;20233;-73
2021/07/24 05:18:27;;;;;;;16.17;11.73;;;;;;;19.01;75.29;100591.34;4967645;28;20205;-73
2021/07/24 05:20:54;;;;;;;17.67;11.63;;;;;;;19.09;75.49;100587.28;4968482;28;20209;-73
2021/07/24 05:23:20;;;;;;;16.00;11.30;;;;;;;19.21;74.87;100587.47;4966980;28;20202;-73
2021/07/24 05:25:46;;;;;;;14.67;11.10;;;;;;;19.27;74.87;100577.34;4968433;28;20241;-73
2021/07/24 05:28:13;;;;;;;16.87;11.30;;;;;;;19.32;75.13;100589.44;4969700;28;20222;-73
2021/07/24 05:30:39;;;;;;;16.03;11.37;;;;;;;19.40;75.24;100589.78;4965628;28;20213;-73
2021/07/24 05:33:05;;;;;;;16.20;11.07;;;;;;;19.42;74.62;100587.91;4967115;28;20468;-74
2021/07/24 05:35:33;;;;;;;15.70;11.87;;;;;;;19.49;74.47;100582.13;4970231;28;20226;-74
2021/07/24 05:37:59;;;;;;;16.27;12.17;;;;;;;19.57;74.08;100592.19;4964951;28;20205;-74
2021/07/24 05:40:26;;;;;;;15.90;11.27;;;;;;;19.64;73.79;100590.84;4983456;28;20206;-74
2021/07/24 05:42:52;;;;;;;16.00;11.07;;;;;;;19.74;73.67;100588.50;4964789;28;20210;-74
2021/07/24 05:45:18;;;;;;;15.07;11.77;;;;;;;19.85;73.62;100593.09;4966404;28;20229;-74
2021/07/24 05:47:45;;;;;;;16.80;11.90;;;;;;;19.91;73.34;100579.47;4968413;28;20225;-74
2021/07/24 05:50:11;;;;;;;16.77;11.90;;;;;;;19.98;71.66;100586.06;4969610;28;20205;-74
2021/07/24 05:52:39;;;;;;;17.10;11.50;;;;;;;20.00;71.56;100589.44;4966645;28;20209;-74
2021/07/24 05:55:06;;;;;;;14.53;11.10;;;;;;;20.08;71.70;100591.56;4966064;28;20241;-74
2021/07/24 05:57:33;;;;;;;15.07;10.97;;;;;;;20.18;70.04;100597.13;4971311;28;20208;-74
2021/07/24 05:59:59;;;;;;;15.60;11.83;;;;;;;20.29;70.59;100601.69;4966966;28;20213;-74
2021/07/24 06:02:25;;;;;;;15.03;11.73;;;;;;;20.34;70.14;100600.41;4968171;28;20298;-74
2021/07/24 06:04:52;;;;;;;14.30;10.97;;;;;;;20.44;70.14;100595.34;4969086;28;20206;-74
2021/07/24 06:07:18;;;;;;;15.53;11.47;;;;;;;20.53;69.47;100599.19;4969175;28;20220;-74
2021/07/24 06:09:46;;;;;;;14.63;10.80;;;;;;;20.56;69.42;100596.28;4967375;28;20690;-74
2021/07/24 06:12:12;;;;;;;13.23;10.27;;;;;;;20.64;69.00;100583.41;4966869;28;20209;-74
2021/07/24 06:14:39;;;;;;;16.87;10.80;;;;;;;20.72;68.69;100580.22;4966034;28;20198;-74
2021/07/24 06:17:05;;;;;;;15.70;11.03;;;;;;;20.83;68.57;100582.16;4964427;28;20245;-74
2021/07/24 06:19:32;;;;;;;15.37;10.67;;;;;;;20.95;67.65;100583.94;4963921;28;20210;-74
2021/07/24 06:21:59;;;;;;;15.80;10.87;;;;;;;21.07;67.07;100583.06;4970742;28;20206;-73
2021/07/24 06:24:26;;;;;;;14.33;10.63;;;;;;;21.19;66.06;100591.94;4966831;28;20297;-73
2021/07/24 06:26:54;;;;;;;13.63;9.83;;;;;;;21.30;66.21;100588.50;4968398;28;20245;-73
2021/07/24 06:29:20;;;;;;;16.57;10.23;;;;;;;21.40;65.54;100591.38;4964837;28;20206;-73
2021/07/24 06:31:46;;;;;;;15.20;10.33;;;;;;;21.46;65.41;100594.47;4962764;28;20217;-73
2021/07/24 06:34:13;;;;;;;14.27;9.90;;;;;;;21.58;65.47;100579.44;4969018;28;20231;-73
2021/07/24 06:36:39;;;;;;;13.30;9.53;;;;;;;21.71;65.05;100566.97;4967580;28;20242;-73
2021/07/24 06:39:06;;;;;;;14.50;10.77;;;;;;;21.83;65.63;100569.66;4962762;28;20190;-73
2021/07/24 06:41:34;;;;;;;14.53;9.40;;;;;;;21.88;63.19;100562.22;4965159;28;20212;-73
2021/07/24 06:44:02;;;;;;;15.07;9.33;;;;;;;22.00;63.69;100566.59;4965949;28;20221;-73
2021/07/24 06:46:28;;;;;;;13.03;9.30;;;;;;;22.12;63.90;100568.34;4959790;28;20226;-73
2021/07/24 06:48:55;;;;;;;14.10;9.53;;;;;;;22.25;64.28;100573.59;4967899;28;20221;-74
2021/07/24 06:51:21;;;;;;;11.17;8.63;;;;;;;22.30;62.22;100576.78;4966262;28;20220;-75
2021/07/24 06:53:47;;;;;;;13.10;8.97;;;;;;;22.41;62.03;100580.38;4964576;28;20205;-74
2021/07/24 06:56:14;;;;;;;11.03;7.97;;;;;;;22.53;61.80;100570.63;4972024;28;20576;-75
2021/07/24 06:58:40;;;;;;;11.33;8.47;;;;;;;22.56;62.09;100578.38;4963030;28;20686;-75
2021/07/24 07:01:08;;;;;;;13.37;8.60;;;;;;;22.64;61.81;100563.53;4965691;28;20210;-74
2021/07/24 07:03:35;;;;;;;13.50;8.97;;;;;;;22.71;60.79;100563.91;4957666;28;20207;-73
2021/07/24 07:06:05;;;;;;;12.73;8.53;;;;;;;22.86;60.97;100561.84;4961272;28;20661;-73
2021/07/24 07:08:31;;;;;;;11.00;8.45;;;;;;;22.99;60.47;100567.03;4957103;28;20218;-73
2021/07/24 07:11:01;;;;;;;11.43;8.40;;;;;;;;;;4966491;28;20301;-73
2021/07/24 07:13:27;;;;;;;11.57;7.85;;;;;;;23.24;60.01;100566.78;4972473;28;20201;-73
2021/07/24 07:15:54;;;;;;;14.73;8.57;;;;;;;23.37;59.31;100557.81;4966868;28;20218;-73
2021/07/24 07:18:22;;;;;;;11.90;8.65;;;;;;;23.48;56.93;100554.28;4965750;28;20200;-73
2021/07/24 07:20:48;;;;;;;10.65;8.13;;;;;;;23.47;57.09;100548.13;4967359;28;20561;-73
2021/07/24 07:23:14;;;;;;;12.27;8.23;;;;;;;23.53;58.50;100550.28;4958787;28;20218;-73
2021/07/24 07:25:42;;;;;;;10.82;8.38;;;;;;;23.59;57.46;100549.78;4973317;28;20241;-73
2021/07/24 07:28:10;;;;;;;10.07;7.88;;;;;;;23.67;57.06;100541.16;4968002;28;20789;-73
2021/07/24 07:30:36;;;;;;;11.30;8.13;;;;;;;23.81;57.29;100534.72;4965001;28;20543;-73
2021/07/24 07:33:04;;;;;;;10.30;7.82;;;;;;;23.86;54.87;100540.50;4960278;28;20301;-73
2021/07/24 07:35:31;;;;;;;9.90;8.05;;;;;;;23.94;56.80;100537.19;4964613;28;20228;-73
2021/07/24 07:37:59;;;;;;;9.60;7.80;;;;;;;24.11;56.67;100528.63;4966205;28;20208;-73
2021/07/24 07:40:28;;;;;;;13.90;8.18;;;;;;;24.27;56.26;100535.31;4978089;28;20213;-73
2021/07/24 07:42:55;;;;;;;11.05;7.68;;;;;;;24.37;56.77;100525.56;4966007;28;20528;-73
2021/07/24 07:45:21;;;;;;;10.23;8.18;;;;;;;24.36;53.82;100524.75;4966000;28;20311;-75
2021/07/24 07:47:48;;;;;;;12.00;7.28;;;;;;;24.43;53.29;100529.53;4964717;28;20222;-73
2021/07/24 07:50:14;;;;;;;10.43;7.68;;;;;;;24.52;54.04;100529.59;4961739;28;20214;-73
2021/07/24 07:52:42;;;;;;;9.50;7.38;;;;;;;24.66;54.28;100527.56;4964493;28;20464;-74
2021/07/24 07:55:09;;;;;;;11.55;7.57;;;;;;;24.75;53.90;100521.44;4965712;28;20229;-73
2021/07/24 07:57:38;;;;;;;9.43;7.15;;;;;;;24.84;54.93;100517.13;4958359;28;20688;-73
2021/07/24 08:00:06;;;;;;;10.65;7.07;;;;;;;24.94;55.17;100508.19;4964455;28;20210;-74
2021/07/24 08:02:38;;;;;;;9.98;6.60;;;;;;;25.07;51.45;100515.09;4964362;28;20237;-73
2021/07/24 08:05:05;;;;;;;10.73;6.93;;;;;;;25.24;53.34;100511.75;4966277;28;20289;-74
2021/07/24 08:07:32;;;;;;;10.18;7.70;;;;;;;25.32;51.99;100513.75;4960779;28;20206;-74
2021/07/24 08:10:00;;;;;;;9.93;7.53;;;;;;;25.44;51.02;100517.97;4965271;28;20288;-74
2021/07/24 08:12:26;;;;;;;9.88;7.30;;;;;;;25.50;50.99;100516.56;4962663;28;20202;-74
2021/07/24 08:14:52;;;;;;;9.88;7.03;;;;;;;25.50;51.64;100514.75;4958409;28;20309;-74
2021/07/24 08:17:20;;;;;;;8.45;6.78;;;;;;;25.58;49.04;100519.41;4964127;28;20220;-75
2021/07/24 08:19:47;;;;;;;8.65;6.15;;;;;;;25.69;48.14;100518.41;4963679;28;20317;-75
2021/07/24 08:22:13;;;;;;;8.27;6.57;;;;;;;25.70;47.27;100518.28;4964599;28;20194;-74
2021/07/24 08:24:40;;;;;;;8.20;6.00;;;;;;;25.73;50.18;100511.78;4965173;28;20210;-72
2021/07/24 08:27:08;;;;;;;8.00;6.28;;;;;;;25.84;46.94;100527.69;4964525;28;20248;-75
2021/07/24 08:29:34;;;;;;;7.97;6.10;;;;;;;25.97;48.06;100522.06;4979814;28;20305;-75
2021/07/24 08:32:00;;;;;;;8.95;6.35;;;;;;;26.04;45.31;100517.84;4965763;28;20755;-75
2021/07/24 08:34:27;;;;;;;7.22;6.25;;;;;;;26.09;46.87;100519.25;4964074;28;20212;-75
2021/07/24 08:36:53;;;;;;;8.77;6.38;;;;;;;26.19;47.96;100512.91;4964715;28;20229;-75
2021/07/24 08:39:19;;;;;;;8.55;6.05;;;;;;;26.34;47.71;100515.13;4969076;28;20662;-74
2021/07/24 08:41:46;;;;;;;7.93;6.18;;;;;;;26.26;48.96;100506.00;4968598;28;20706;-75
2021/07/24 08:44:13;;;;;;;9.48;6.38;;;;;;;26.39;48.27;100504.84;4968544;28;20241;-74
2021/07/24 08:46:40;;;;;;;9.30;6.20;;;;;;;26.52;46.63;100505.31;4965979;28;20218;-75
2021/07/24 08:49:06;;;;;;;8.10;5.95;;;;;;;26.64;47.24;100503.34;4964577;28;20304;-74
2021/07/24 08:51:37;;;;;;;7.28;6.45;;;;;;;26.67;45.76;100496.88;4968660;28;20206;-74
2021/07/24 08:54:04;;;;;;;9.13;6.65;;;;;;;26.71;46.57;100501.78;4963142;28;20210;-76
2021/07/24 08:56:36;;;;;;;7.97;6.63;;;;;;;26.77;46.06;100500.34;4966834;28;20221;-74
2021/07/24 08:59:04;;;;;;;9.80;6.35;;;;;;;26.82;46.03;100500.72;4969857;28;20682;-75
2021/07/24 09:01:34;;;;;;;7.82;6.45;;;;;;;26.87;45.31;100503.81;4966206;28;20607;-75
2021/07/24 09:04:04;;;;;;;8.52;6.07;;;;;;;26.99;44.48;100501.78;4968485;28;20241;-75
2021/07/24 09:06:31;;;;;;;8.55;6.15;;;;;;;27.02;47.09;100505.00;4960971;28;20581;-74
2021/07/24 09:08:57;;;;;;;8.68;6.75;;;;;;;27.06;45.42;100507.38;4965945;28;20479;-75
2021/07/24 09:11:24;;;;;;;7.32;6.18;;;;;;;27.16;44.17;100500.13;4958560;28;20305;-75
2021/07/24 09:13:51;;;;;;;7.65;5.97;;;;;;;27.22;41.62;100509.38;4965561;28;20210;-75
2021/07/24 09:16:17;;;;;;;8.38;6.22;;;;;;;27.16;41.30;100502.81;4967836;28;20609;-74
2021/07/24 09:18:48;;;;;;;7.18;6.10;;;;;;;27.20;41.67;100502.34;4967265;28;20198;-74
2021/07/24 09:21:15;;;;;;;7.40;5.97;;;;;;;27.29;44.19;100495.25;4966021;28;20752;-74
2021/07/24 09:23:47;;;;;;;9.77;6.50;;;;;;;27.44;41.50;100502.75;4966564;28;20265;-74
2021/07/24 09:26:30;;;;;;;7.60;5.85;;;;;;;27.42;42.40;100497.56;4962842;28;20229;-74
2021/07/24 09:29:09;;;;;;;6.72;5.45;;;;;;;27.53;43.41;100496.50;4966663;28;20273;-74
2021/07/24 09:31:37;;;;;;;8.80;6.40;;;;;;;27.64;43.56;100487.41;4967534;28;20599;-74
2021/07/24 09:34:06;;;;;;;8.75;6.72;;;;;;;27.67;44.02;100487.94;4968490;28;20710;-74
2021/07/24 09:36:33;;;;;;;7.68;6.57;;;;;;;27.74;43.98;100485.47;4966401;28;20665;-75
2021/07/24 09:39:11;;;;;;;8.43;6.45;;;;;;;27.66;44.58;100485.41;4967332;28;20287;-74
2021/07/24 09:41:39;;;;;;;8.80;6.15;;;;;;;27.69;43.14;100485.09;4963038;28;20207;-74
2021/07/24 09:44:06;;;;;;;8.77;6.22;;;;;;;27.75;44.16;100481.78;4975351;28;20698;-75
2021/07/24 09:46:32;;;;;;;8.80;6.40;;;;;;;27.92;41.57;100488.16;4965339;28;20324;-76
2021/07/24 09:49:12;;;;;;;7.72;6.18;;;;;;;27.94;41.75;100478.94;4963942;28;20226;-75
2021/07/24 09:51:40;;;;;;;7.97;6.80;;;;;;;27.89;42.73;100472.34;4964329;28;20221;-74
2021/07/24 09:54:22;;;;;;;7.53;6.28;;;;;;;28.04;43.66;100473.50;4967044;28;20256;-75
2021/07/24 09:56:50;;;;;;;7.65;6.72;;;;;;;28.03;43.70;100465.59;4968002;28;20317;-74
2021/07/24 09:59:19;;;;;;;8.75;6.70;;;;;;;28.25;42.34;100465.06;4966610;28;20233;-76
2021/07/24 10:01:53;;;;;;;8.65;7.05;;;;;;;28.13;43.21;100464.50;4963859;28;20679;-72
2021/07/24 10:04:25;;;;;;;7.70;6.35;;;;;;;28.23;43.49;100466.22;4962141;28;20663;-72
2021/07/24 10:06:55;;;;;;;8.63;6.57;;;;;;;28.29;41.48;100469.09;4967016;28;20304;-75
2021/07/24 10:09:25;;;;;;;8.50;6.95;;;;;;;28.25;41.92;100459.72;4967660;28;20230;-74
2021/07/24 10:11:53;;;;;;;8.55;6.15;;;;;;;28.27;41.95;100463.06;4966184;28;20579;-74
2021/07/24 10:14:21;;;;;;;8.95;6.78;;;;;;;28.35;42.52;100464.94;4966512;28;20212;-76
2021/07/24 10:16:48;;;;;;;8.50;6.90;;;;;;;28.42;44.36;100460.63;4968962;28;20396;-74
2021/07/24 10:19:15;;;;;;;8.60;6.53;;;;;;;28.42;43.10;100462.47;4967701;28;20225;-74
2021/07/24 10:21:43;;;;;;;7.57;6.78;;;;;;;28.56;44.60;100463.75;4958107;28;20215;-74
2021/07/24 10:24:10;;;;;;;9.27;6.65;;;;;;;28.64;44.99;100455.75;4966844;28;20210;-74
2021/07/24 10:26:38;;;;;;;8.00;6.35;;;;;;;28.74;42.89;100464.47;4965855;28;20315;-72
2021/07/24 10:29:07;;;;;;;12.13;6.55;;;;;;;28.75;40.49;100474.22;4964644;28;20226;-75
2021/07/24 10:31:42;;;;;;;7.55;6.32;;;;;;;28.83;41.54;100463.50;4967128;28;20679;-73
2021/07/24 10:34:10;;;;;;;8.52;6.15;;;;;;;28.92;42.20;100467.06;4967895;28;20721;-74
2021/07/24 10:36:38;;;;;;;8.65;6.57;;;;;;;29.02;42.95;100464.22;4966265;28;20229;-74
2021/07/24 10:39:10;;;;;;;7.38;6.00;;;;;;;29.00;43.08;100458.19;4965209;28;20671;-73
2021/07/24 10:41:41;;;;;;;7.82;6.55;;;;;;;29.05;40.89;100470.09;4966872;28;20201;-74
2021/07/24 10:44:08;;;;;;;9.40;6.57;;;;;;;29.13;43.67;100452.31;4966400;28;20265;-74
2021/07/24 10:47:11;;;;;;;8.30;6.22;;;;;;;29.41;42.92;100452.88;4966696;28;20221;-74
2021/07/24 10:49:58;;;;;;;8.00;5.85;;;;;;;29.53;39.41;100464.97;4964783;28;20225;-74
2021/07/24 10:52:25;;;;;;;7.38;5.80;;;;;;;29.65;41.05;100452.88;4963610;28;20209;-74
2021/07/24 10:55:16;;;;;;;7.35;6.28;;;;;;;29.78;41.82;100454.25;4966559;28;20198;-74
2021/07/24 10:58:06;;;;;;;6.65;5.95;;;;;;;29.45;42.43;100448.88;4966712;28;20206;-74
2021/07/24 11:00:50;;;;;;;7.57;6.40;;;;;;;29.23;41.28;100447.69;4959431;28;20281;-74
2021/07/24 11:03:41;;;;;;;9.18;6.38;;;;;;;29.42;41.10;100441.16;4966699;28;20209;-74
2021/07/24 11:06:25;;;;;;;7.25;6.40;;;;;;;29.69;39.35;100445.34;4965510;28;20277;-74
2021/07/24 11:09:20;;;;;;;8.27;6.10;;;;;;;29.75;40.89;100447.38;4965527;28;20320;-74
2021/07/24 11:12:03;;;;;;;8.40;6.32;;;;;;;29.87;39.70;100445.19;4965384;28;20212;-74
2021/07/24 11:14:57;;;;;;;8.50;6.32;;;;;;;30.01;42.25;100440.97;4956525;28;20305;-74
2021/07/24 11:17:23;;;;;;;8.90;6.45;;;;;;;29.93;39.50;100430.22;4965998;28;20237;-74
2021/07/24 11:20:35;;;;;;;9.07;6.13;;;;;;;30.11;40.67;100428.16;4964396;28;20556;-74
2021/07/24 11:23:05;;;;;;;9.05;6.93;;;;;;;29.81;39.29;100433.28;4962771;28;20305;-74
2021/07/24 11:25:35;;;;;;;7.78;6.43;;;;;;;29.93;39.24;100430.22;4961487;28;20491;-74
2021/07/24 11:28:03;;;;;;;6.82;6.10;;;;;;;30.01;41.28;100420.31;4957904;28;20297;-74
2021/07/24 11:30:30;;;;;;;7.57;6.68;;;;;;;30.11;40.77;100416.56;4963140;28;20215;-75